Time;durP1;ratioP1;P1;durP2;ratioP2;P2;SDS_P1;SDS_P2;PMS_P1;PMS_P2;Temp;Humidity;BMP_temperature;BMP_pressure;BME280_temperature;BME280_humidity;BME280_pressure;Samples;Min_cycle;Max_cycle;Signal;HPM_P1;HPM_P2
2023/06/04 00:00:25;;;;;;;18.10;8.83;;;17.90;99.90;;;;;;4986116;28;20451;-70
2023/06/04 00:02:51;;;;;;;21.25;8.82;;;17.80;99.90;;;;;;4982555;28;20026;-71
2023/06/04 00:05:17;;;;;;;10.77;7.45;;;17.80;99.90;;;;;;4984423;28;20035;-73
2023/06/04 00:07:43;;;;;;;16.00;9.20;;;17.70;99.90;;;;;;4985218;28;20038;-72
2023/06/04 00:10:09;;;;;;;11.43;8.20;;;17.90;99.90;;;;;;4982320;28;20065;-72
2023/06/04 00:12:35;;;;;;;15.18;9.00;;;18.00;99.90;;;;;;4986429;28;20102;-73
2023/06/04 00:15:01;;;;;;;13.48;8.00;;;17.80;99.90;;;;;;4981320;28;20040;-71
2023/06/04 00:17:27;;;;;;;13.65;7.40;;;17.80;99.90;;;;;;4987347;28;20034;-72
2023/06/04 00:19:52;;;;;;;13.37;7.80;;;17.80;99.90;;;;;;4983627;28;20159;-70
2023/06/04 00:22:18;;;;;;;13.57;6.90;;;17.70;99.90;;;;;;4981603;28;20034;-68
2023/06/04 00:24:43;;;;;;;9.00;6.73;;;17.70;99.90;;;;;;4978733;28;20454;-68
2023/06/04 00:27:09;;;;;;;9.17;7.07;;;17.70;99.90;;;;;;4985027;28;20038;-71
2023/06/04 00:29:35;;;;;;;15.87;7.30;;;17.60;99.90;;;;;;4986375;28;20084;-68
2023/06/04 00:32:01;;;;;;;10.20;7.38;;;17.60;99.90;;;;;;4982608;28;20426;-71
2023/06/04 00:34:27;;;;;;;8.83;6.53;;;17.70;99.90;;;;;;4986756;28;20064;-71
2023/06/04 00:36:52;;;;;;;12.20;5.80;;;17.70;99.90;;;;;;4984683;28;20072;-71
2023/06/04 00:39:18;;;;;;;13.97;6.03;;;17.60;99.90;;;;;;4981450;28;21046;-72
2023/06/04 00:41:44;;;;;;;13.43;6.30;;;17.50;99.90;;;;;;4985669;28;20081;-71
2023/06/04 00:44:11;;;;;;;9.57;5.87;;;17.50;99.90;;;;;;4986736;28;20045;-71
2023/06/04 00:46:37;;;;;;;27.48;6.63;;;17.50;99.90;;;;;;4982671;28;20049;-71
2023/06/04 00:49:04;;;;;;;9.10;5.75;;;17.50;99.90;;;;;;4981264;28;20857;-68
2023/06/04 00:51:31;;;;;;;14.35;7.53;;;17.50;99.90;;;;;;4987198;28;20038;-70
2023/06/04 00:53:58;;;;;;;11.00;6.63;;;17.60;99.90;;;;;;4983142;28;20019;-67
2023/06/04 00:56:24;;;;;;;15.40;6.72;;;17.70;99.90;;;;;;4983201;28;20161;-69
2023/06/04 00:58:50;;;;;;;11.95;5.90;;;17.80;99.90;;;;;;4979394;28;20126;-69
2023/06/04 01:01:43;;;;;;;10.90;6.70;;;17.80;99.90;;;;;;4983089;28;20041;-68
2023/06/04 01:04:35;;;;;;;11.48;7.00;;;17.80;99.90;;;;;;4982862;28;20034;-71
2023/06/04 01:07:03;;;;;;;11.10;6.78;;;17.80;99.90;;;;;;4961043;28;20051;-71
2023/06/04 01:09:30;;;;;;;13.00;6.75;;;17.90;99.90;;;;;;4982326;28;20038;-72
2023/06/04 01:12:01;;;;;;;8.73;6.60;;;17.90;99.90;;;;;;4981560;28;20395;-71
2023/06/04 01:14:29;;;;;;;19.13;6.15;;;17.90;99.90;;;;;;4985291;28;20461;-71
2023/06/04 01:17:23;;;;;;;18.02;7.63;;;17.80;99.90;;;;;;4984332;28;20038;-72
2023/06/04 01:20:08;;;;;;;12.75;6.53;;;17.80;99.90;;;;;;4983803;28;20045;-71
2023/06/04 01:22:54;;;;;;;10.00;5.55;;;17.90;99.90;;;;;;4985336;28;20465;-72
2023/06/04 01:25:26;;;;;;;10.95;6.45;;;17.90;99.90;;;;;;4983410;28;20038;-70
2023/06/04 01:27:55;;;;;;;13.88;8.35;;;17.90;99.90;;;;;;4984805;28;20034;-71
2023/06/04 01:30:26;;;;;;;11.02;7.25;;;18.00;99.90;;;;;;4981935;28;20139;-70
2023/06/04 01:32:56;;;;;;;13.98;5.57;;;18.00;99.90;;;;;;4981193;28;20063;-68
2023/06/04 01:35:22;;;;;;;12.63;6.47;;;17.90;99.90;;;;;;4979274;28;20027;-71
2023/06/04 01:37:49;;;;;;;13.00;6.82;;;17.90;99.90;;;;;;4977114;28;20082;-70
2023/06/04 01:40:15;;;;;;;11.05;6.50;;;17.70;99.90;;;;;;4981623;28;20111;-69
2023/06/04 01:42:41;;;;;;;10.60;7.50;;;17.80;99.90;;;;;;4984765;28;20035;-71
2023/06/04 01:45:07;;;;;;;16.38;7.70;;;17.80;99.90;;;;;;4980518;28;20089;-72
2023/06/04 01:47:34;;;;;;;14.43;7.68;;;17.80;99.90;;;;;;4977059;28;20046;-72
2023/06/04 01:50:01;;;;;;;16.77;7.70;;;17.90;99.90;;;;;;4984303;28;20042;-72
2023/06/04 01:52:26;;;;;;;19.00;7.90;;;17.90;99.90;;;;;;4981478;28;20073;-72
2023/06/04 01:54:52;;;;;;;9.60;8.13;;;17.90;99.90;;;;;;4983750;28;20068;-69
2023/06/04 01:57:21;;;;;;;14.43;8.25;;;17.90;99.90;;;;;;4982213;28;20398;-69
2023/06/04 01:59:47;;;;;;;14.02;8.05;;;17.90;99.90;;;;;;4975984;28;20419;-69
2023/06/04 02:02:14;;;;;;;16.38;7.32;;;17.80;99.90;;;;;;4978466;28;20039;-70
2023/06/04 02:04:41;;;;;;;11.15;7.15;;;17.80;99.90;;;;;;4984536;28;20065;-71
2023/06/04 02:07:11;;;;;;;13.25;7.47;;;17.70;99.90;;;;;;4982273;28;20043;-69
2023/06/04 02:09:37;;;;;;;11.10;7.55;;;17.80;99.90;;;;;;4983133;28;20526;-71
2023/06/04 02:12:03;;;;;;;21.95;7.78;;;17.80;99.90;;;;;;4982065;28;20039;-68
2023/06/04 02:14:29;;;;;;;18.05;6.97;;;17.90;99.90;;;;;;4982692;28;20426;-72
2023/06/04 02:16:57;;;;;;;18.10;7.67;;;17.90;99.90;;;;;;4982261;28;20027;-72
2023/06/04 02:19:26;;;;;;;16.67;8.05;;;17.80;99.90;;;;;;4983647;28;20376;-72
2023/06/04 02:21:53;;;;;;;14.90;8.27;;;17.80;99.90;;;;;;4987378;28;20377;-72
2023/06/04 02:24:18;;;;;;;10.88;7.55;;;17.80;99.90;;;;;;4983553;28;20069;-70
2023/06/04 02:26:44;;;;;;;14.20;8.57;;;17.80;99.90;;;;;;4986294;28;20050;-72
2023/06/04 02:29:09;;;;;;;16.67;9.50;;;17.80;99.90;;;;;;4987669;28;20088;-70
2023/06/04 02:31:35;;;;;;;16.50;9.53;;;17.60;99.90;;;;;;4988574;28;20041;-68
2023/06/04 02:34:01;;;;;;;16.07;9.80;;;17.80;99.90;;;;;;4988624;28;20022;-68
2023/06/04 02:36:26;;;;;;;17.23;9.47;;;17.70;99.90;;;;;;4986515;28;20041;-68
2023/06/04 02:38:52;;;;;;;22.23;10.20;;;17.70;99.90;;;;;;4982732;28;20030;-68
2023/06/04 02:41:17;;;;;;;18.25;9.63;;;17.70;99.90;;;;;;4984383;28;20055;-68
2023/06/04 02:43:43;;;;;;;22.80;9.77;;;17.60;99.90;;;;;;4986977;28;20042;-70
2023/06/04 02:46:09;;;;;;;39.33;13.75;;;17.70;99.90;;;;;;4983778;28;20058;-70
2023/06/04 02:48:35;;;;;;;15.77;10.00;;;17.60;99.90;;;;;;4985321;28;20034;-71
2023/06/04 02:51:00;;;;;;;13.00;9.70;;;17.70;99.90;;;;;;4986245;28;20467;-71
2023/06/04 02:53:26;;;;;;;14.10;10.30;;;17.70;99.90;;;;;;4984128;28;20034;-71
2023/06/04 02:55:52;;;;;;;26.43;10.33;;;17.70;99.90;;;;;;4986743;28;20031;-70
2023/06/04 02:58:18;;;;;;;23.13;9.00;;;17.70;99.90;;;;;;4988490;28;20038;-69
2023/06/04 03:00:45;;;;;;;16.98;7.80;;;17.60;99.90;;;;;;4988745;28;20498;-69
2023/06/04 03:03:10;;;;;;;13.48;6.82;;;17.50;99.90;;;;;;4983777;28;20038;-70
2023/06/04 03:05:36;;;;;;;17.13;7.87;;;17.40;99.90;;;;;;4987188;28;20049;-68
2023/06/04 03:08:03;;;;;;;15.65;7.80;;;17.30;99.90;;;;;;4982198;28;20056;-70
2023/06/04 03:10:29;;;;;;;15.40;6.97;;;17.30;99.90;;;;;;4985013;28;20035;-71
2023/06/04 03:12:55;;;;;;;14.27;6.85;;;17.30;99.90;;;;;;4986146;28;20034;-71
2023/06/04 03:15:21;;;;;;;11.65;7.50;;;17.30;99.90;;;;;;4984519;28;20033;-71
2023/06/04 03:17:46;;;;;;;23.67;7.90;;;17.30;99.90;;;;;;4985939;28;20030;-71
2023/06/04 03:20:12;;;;;;;10.57;7.03;;;17.20;99.90;;;;;;4980903;28;20113;-71
2023/06/04 03:22:38;;;;;;;15.30;6.97;;;17.20;99.90;;;;;;4982378;28;20059;-71
2023/06/04 03:25:04;;;;;;;12.77;6.23;;;17.10;99.90;;;;;;4977916;28;20513;-70
2023/06/04 03:27:31;;;;;;;;;;;17.20;99.90;;;;;;4984669;28;20333;-72
2023/06/04 03:29:56;;;;;;;13.43;5.72;;;17.00;99.90;;;;;;4982987;28;19937;-71
2023/06/04 03:32:22;;;;;;;17.97;6.87;;;17.00;99.90;;;;;;4986972;28;20510;-71
2023/06/04 03:34:47;;;;;;;15.23;8.00;;;17.00;99.90;;;;;;4984820;28;20037;-68
2023/06/04 03:37:13;;;;;;;13.87;6.83;;;17.00;99.90;;;;;;4985299;28;20027;-70
2023/06/04 03:39:39;;;;;;;12.37;6.13;;;16.90;99.90;;;;;;4987075;28;20446;-70
2023/06/04 03:42:05;;;;;;;12.00;6.20;;;16.80;99.90;;;;;;4983340;28;20126;-70
2023/06/04 03:44:31;;;;;;;18.13;6.53;;;16.80;99.90;;;;;;4986227;28;20061;-68
2023/06/04 03:46:56;;;;;;;9.70;6.63;;;16.70;99.90;;;;;;4981211;28;20427;-69
2023/06/04 03:49:22;;;;;;;15.03;6.83;;;16.80;99.90;;;;;;4984867;28;20037;-70
2023/06/04 03:51:47;;;;;;;16.47;7.00;;;16.80;99.90;;;;;;4985287;28;20038;-68
2023/06/04 03:54:17;;;;;;;16.10;7.27;;;16.80;99.90;;;;;;4981755;28;20042;-68
2023/06/04 03:56:44;;;;;;;32.13;7.50;;;16.70;99.90;;;;;;4985529;28;20106;-71
2023/06/04 03:59:10;;;;;;;13.43;6.40;;;16.60;99.90;;;;;;4979949;28;20419;-71
2023/06/04 04:01:36;;;;;;;14.95;7.38;;;16.70;99.90;;;;;;4976939;28;20026;-71
2023/06/04 04:04:02;;;;;;;16.23;6.82;;;16.70;99.90;;;;;;4980128;28;20049;-69
2023/06/04 04:06:27;;;;;;;16.83;6.30;;;16.70;99.90;;;;;;4972090;28;20058;-70
2023/06/04 04:08:53;;;;;;;18.43;6.23;;;16.80;99.90;;;;;;4979420;28;20029;-70
2023/06/04 04:11:19;;;;;;;19.07;6.87;;;16.70;99.90;;;;;;4981341;28;20034;-71
2023/06/04 04:13:46;;;;;;;12.30;6.30;;;16.60;99.90;;;;;;4978202;28;20027;-69
2023/06/04 04:16:12;;;;;;;14.73;7.00;;;16.50;99.90;;;;;;4980829;28;20034;-69
2023/06/04 04:18:37;;;;;;;9.05;7.47;;;16.60;99.90;;;;;;4978845;28;20064;-69
2023/06/04 04:21:04;;;;;;;13.97;7.67;;;16.70;99.90;;;;;;4978256;28;20537;-71
2023/06/04 04:23:31;;;;;;;10.95;6.43;;;16.60;99.90;;;;;;4975390;28;20023;-70
2023/06/04 04:25:58;;;;;;;;;;;16.70;99.90;;;;;;4980134;28;20048;-70
2023/06/04 04:28:32;;;;;;;16.48;6.88;;;16.50;99.90;;;;;;4982223;28;19917;-70
2023/06/04 04:31:02;;;;;;;15.18;7.05;;;16.50;99.90;;;;;;4983125;28;20046;-70
2023/06/04 04:33:32;;;;;;;18.05;7.22;;;16.50;99.90;;;;;;4973583;28;20115;-71
2023/06/04 04:36:01;;;;;;;13.07;7.28;;;16.70;99.90;;;;;;4977271;28;20033;-70
2023/06/04 04:38:28;;;;;;;12.25;6.60;;;16.60;99.90;;;;;;4977906;28;20033;-70
2023/06/04 04:40:54;;;;;;;13.50;5.53;;;16.60;99.90;;;;;;4981267;28;20427;-70
2023/06/04 04:43:30;;;;;;;17.23;7.15;;;16.60;99.90;;;;;;4980709;28;20049;-68
2023/06/04 04:45:56;;;;;;;10.95;6.28;;;16.60;99.90;;;;;;4976054;28;20534;-69
2023/06/04 04:48:21;;;;;;;18.05;6.65;;;16.70;99.90;;;;;;4979602;28;20101;-68
2023/06/04 04:50:47;;;;;;;20.73;7.32;;;16.70;99.90;;;;;;4979893;28;20102;-69
2023/06/04 04:53:13;;;;;;;12.25;6.15;;;16.70;99.90;;;;;;4977300;28;20038;-69
2023/06/04 04:55:38;;;;;;;12.43;7.33;;;16.60;99.90;;;;;;4979597;28;20030;-70
2023/06/04 04:58:04;;;;;;;19.87;8.07;;;16.80;99.90;;;;;;4983483;28;20521;-71
2023/06/04 05:00:30;;;;;;;13.93;7.17;;;17.00;99.90;;;;;;4978814;28;20057;-69
2023/06/04 05:02:55;;;;;;;18.17;6.53;;;17.10;99.90;;;;;;4977056;28;20841;-70
2023/06/04 05:05:21;;;;;;;11.60;6.20;;;17.20;99.90;;;;;;4984002;28;20053;-68
2023/06/04 05:07:47;;;;;;;14.53;7.33;;;17.20;99.90;;;;;;4980336;28;20530;-70
2023/06/04 05:10:12;;;;;;;9.30;5.67;;;17.10;99.90;;;;;;4976677;28;20030;-68
2023/06/04 05:12:38;;;;;;;9.23;6.10;;;17.20;99.90;;;;;;4977828;28;20031;-71
2023/06/04 05:15:04;;;;;;;15.17;6.00;;;17.30;99.90;;;;;;4975483;28;20030;-69
2023/06/04 05:17:30;;;;;;;8.30;6.00;;;16.90;99.90;;;;;;4981173;28;20026;-70
2023/06/04 05:20:11;;;;;;;13.70;6.50;;;16.80;99.90;;;;;;4978738;28;20053;-70
2023/06/04 05:22:37;;;;;;;11.18;6.57;;;17.20;99.90;;;;;;4975494;28;21397;-70
2023/06/04 05:25:03;;;;;;;10.90;5.75;;;17.80;99.90;;;;;;4979909;28;20049;-69
2023/06/04 05:27:31;;;;;;;9.57;5.53;;;17.90;99.90;;;;;;4980581;28;20414;-70
2023/06/04 05:29:57;;;;;;;11.20;5.85;;;17.70;99.90;;;;;;4980200;28;20034;-70
2023/06/04 05:32:23;;;;;;;9.88;5.72;;;17.70;99.90;;;;;;4979962;28;20018;-71
2023/06/04 05:34:48;;;;;;;12.87;5.53;;;18.70;99.90;;;;;;4973249;28;20536;-71
2023/06/04 05:37:16;;;;;;;6.78;5.40;;;20.30;99.90;;;;;;4979838;28;20035;-71
2023/06/04 05:39:42;;;;;;;16.55;6.25;;;21.40;99.90;;;;;;4982791;28;20038;-71
2023/06/04 05:42:09;;;;;;;11.50;5.57;;;21.90;99.90;;;;;;4980074;28;20087;-71
2023/06/04 05:44:34;;;;;;;16.55;4.78;;;22.20;99.90;;;;;;4981101;28;20039;-69
2023/06/04 05:47:01;;;;;;;8.00;4.20;;;23.10;99.90;;;;;;4976659;28;20556;-69
2023/06/04 05:49:27;;;;;;;7.53;4.47;;;23.60;99.90;;;;;;4978449;28;20347;-70
2023/06/04 05:51:52;;;;;;;8.10;3.97;;;24.00;99.90;;;;;;4977285;28;20498;-69
2023/06/04 05:54:18;;;;;;;9.40;4.65;;;23.80;99.90;;;;;;4981032;28;20038;-69
2023/06/04 05:56:44;;;;;;;12.50;4.60;;;22.50;99.90;;;;;;4983724;28;20398;-69
2023/06/04 05:59:10;;;;;;;8.65;4.40;;;23.00;99.90;;;;;;4979537;28;20042;-71
2023/06/04 06:01:36;;;;;;;8.73;3.78;;;22.90;99.90;;;;;;4982319;28;20118;-71
2023/06/04 06:04:02;;;;;;;7.00;4.00;;;22.00;99.90;;;;;;4986074;28;20049;-71
2023/06/04 06:06:28;;;;;;;13.60;4.22;;;21.40;99.90;;;;;;4984081;28;20495;-71
2023/06/04 06:08:54;;;;;;;6.47;4.10;;;21.20;99.90;;;;;;4982424;28;20962;-71
2023/06/04 06:11:20;;;;;;;8.77;4.78;;;21.10;99.90;;;;;;4979075;28;20043;-71
2023/06/04 06:13:46;;;;;;;5.70;4.63;;;21.00;99.90;;;;;;4983623;28;20129;-72
2023/06/04 06:16:12;;;;;;;6.87;4.80;;;21.30;99.90;;;;;;4983229;28;20078;-73
2023/06/04 06:18:37;;;;;;;8.27;4.43;;;23.30;99.90;;;;;;4979514;28;20336;-69
2023/06/04 06:21:03;;;;;;;9.50;4.30;;;24.70;99.90;;;;;;4982115;28;20120;-71
2023/06/04 06:23:28;;;;;;;10.20;3.95;;;25.70;99.90;;;;;;4984299;28;20679;-69
2023/06/04 06:25:54;;;;;;;7.27;4.30;;;25.40;99.90;;;;;;4981961;28;20053;-72
2023/06/04 06:28:20;;;;;;;5.40;3.75;;;25.60;99.90;;;;;;4986106;28;20815;-72
2023/06/04 06:30:45;;;;;;;10.57;4.05;;;24.20;99.90;;;;;;4982445;28;20045;-72
2023/06/04 06:33:12;;;;;;;9.52;4.05;;;23.70;99.90;;;;;;4985552;28;20097;-69
2023/06/04 06:35:38;;;;;;;12.57;3.90;;;23.20;99.90;;;;;;4983631;28;20030;-70
2023/06/04 06:38:03;;;;;;;10.05;3.78;;;22.50;99.90;;;;;;4982336;28;20684;-71
2023/06/04 06:40:30;;;;;;;9.63;3.60;;;21.90;99.90;;;;;;4983070;28;20717;-68
2023/06/04 06:42:56;;;;;;;7.25;4.00;;;21.60;99.90;;;;;;4982427;28;20096;-71
2023/06/04 06:45:21;;;;;;;12.93;4.57;;;21.40;99.90;;;;;;4982699;28;20026;-71
2023/06/04 06:47:47;;;;;;;10.82;4.93;;;21.10;99.90;;;;;;4985832;28;20137;-70
2023/06/04 06:50:13;;;;;;;8.80;4.50;;;21.10;99.90;;;;;;4978331;28;20113;-71
2023/06/04 06:52:38;;;;;;;12.83;4.53;;;21.10;99.90;;;;;;4979536;28;20380;-71
2023/06/04 06:55:05;;;;;;;8.32;4.38;;;21.00;99.90;;;;;;4982088;28;20030;-70
2023/06/04 06:57:30;;;;;;;16.13;4.70;;;20.80;99.90;;;;;;4980742;28;20053;-70
2023/06/04 06:59:56;;;;;;;9.73;4.50;;;20.50;99.90;;;;;;4981486;28;20411;-75
2023/06/04 07:02:22;;;;;;;12.50;4.32;;;20.90;99.90;;;;;;4978199;28;20034;-71
2023/06/04 07:04:48;;;;;;;8.43;4.45;;;20.90;99.90;;;;;;4981329;28;20038;-73
2023/06/04 07:07:13;;;;;;;7.18;4.07;;;20.50;99.90;;;;;;4985780;28;20042;-72
2023/06/04 07:09:39;;;;;;;11.05;4.15;;;20.30;99.90;;;;;;4981670;28;20042;-74
2023/06/04 07:12:06;;;;;;;6.72;3.72;;;20.50;99.90;;;;;;4974971;28;20106;-72
2023/06/04 07:14:31;;;;;;;12.60;3.72;;;20.80;99.90;;;;;;4976516;28;20769;-72
2023/06/04 07:16:57;;;;;;;9.07;3.43;;;20.40;99.90;;;;;;4976902;28;20041;-76
2023/06/04 07:19:23;;;;;;;9.20;3.53;;;20.50;99.90;;;;;;4976849;28;20141;-75
2023/06/04 07:21:48;;;;;;;7.67;3.77;;;20.90;99.90;;;;;;4975771;28;20049;-72
2023/06/04 07:24:14;;;;;;;13.07;3.83;;;21.50;99.90;;;;;;4985278;28;20036;-74
2023/06/04 07:26:39;;;;;;;5.72;3.45;;;21.30;99.90;;;;;;4977493;28;20113;-74
2023/06/04 07:29:05;;;;;;;6.93;3.67;;;20.90;99.90;;;;;;4984732;28;20530;-70
2023/06/04 07:31:31;;;;;;;11.30;4.27;;;21.50;99.90;;;;;;4984362;28;20812;-72
2023/06/04 07:33:56;;;;;;;11.37;3.77;;;21.90;99.90;;;;;;4975540;28;20034;-71
2023/06/04 07:36:22;;;;;;;10.27;3.13;;;22.50;99.90;;;;;;4980870;28;20036;-73
2023/06/04 07:38:48;;;;;;;7.63;3.40;;;22.50;99.90;;;;;;4980610;28;20491;-76
2023/06/04 07:41:13;;;;;;;9.63;3.83;;;22.00;99.90;;;;;;4971658;28;20038;-74
2023/06/04 07:43:39;;;;;;;6.77;3.73;;;21.80;99.90;;;;;;4974375;28;20290;-70
2023/06/04 07:46:05;;;;;;;8.90;3.38;;;22.00;99.90;;;;;;4997447;28;20290;-74
2023/06/04 07:48:31;;;;;;;6.68;3.38;;;22.70;99.90;;;;;;4981237;28;20103;-77
2023/06/04 07:51:01;;;;;;;8.57;4.22;;;22.80;99.90;;;;;;4978327;28;20054;-74
2023/06/04 07:53:27;;;;;;;55.53;13.80;;;22.70;99.90;;;;;;4980656;28;20507;-75
2023/06/04 07:55:54;;;;;;;51.35;13.13;;;23.10;99.90;;;;;;4978054;28;20089;-75
2023/06/04 07:58:19;;;;;;;7.47;3.97;;;22.10;99.90;;;;;;4979971;28;20097;-77
2023/06/04 08:00:45;;;;;;;8.50;5.45;;;22.20;99.90;;;;;;4977338;28;20038;-72
2023/06/04 08:03:11;;;;;;;33.50;10.48;;;23.00;99.90;;;;;;4979258;28;20153;-73
2023/06/04 08:05:36;;;;;;;18.73;6.70;;;22.30;99.90;;;;;;4979615;28;20037;-71
2023/06/04 08:08:03;;;;;;;7.67;4.37;;;22.30;99.90;;;;;;4979869;28;20034;-73
2023/06/04 08:10:29;;;;;;;7.47;4.47;;;22.60;99.90;;;;;;4975245;28;20366;-72
2023/06/04 08:12:55;;;;;;;;;;;23.50;99.90;;;;;;4978266;28;20038;-72
2023/06/04 08:15:20;;;;;;;16.38;5.30;;;24.10;99.90;;;;;;4977002;28;19910;-71
2023/06/04 08:17:46;;;;;;;6.57;4.30;;;23.60;99.90;;;;;;4978858;28;20069;-71
2023/06/04 08:20:12;;;;;;;9.90;4.53;;;23.90;99.90;;;;;;4981658;28;20089;-72
2023/06/04 08:22:37;;;;;;;7.20;4.43;;;24.70;99.90;;;;;;4976404;28;20458;-75
2023/06/04 08:25:04;;;;;;;6.38;4.47;;;25.00;99.90;;;;;;4979390;28;20434;-70
2023/06/04 08:29:08;;;;;;;7.32;4.53;;;24.60;99.90;;;;;;5116316;27;20410;-72
2023/06/04 08:31:34;;;;;;;6.70;3.88;;;25.00;99.90;;;;;;5097643;28;20144;-74
2023/06/04 08:34:00;;;;;;;6.07;4.43;;;25.50;99.90;;;;;;5092917;28;20047;-72
2023/06/04 08:36:27;;;;;;;4.68;3.88;;;25.20;99.90;;;;;;5083878;28;20020;-75
2023/06/04 08:38:53;;;;;;;8.07;4.70;;;25.20;99.90;;;;;;5100749;28;20073;-76
2023/06/04 08:41:28;;;;;;;5.43;3.85;;;25.20;99.90;;;;;;5101651;28;20031;-76
2023/06/04 08:43:57;;;;;;;9.98;4.60;;;24.90;99.90;;;;;;5098925;28;20024;-72
2023/06/04 08:46:25;;;;;;;8.95;5.38;;;24.90;99.90;;;;;;5089809;28;20032;-70
2023/06/04 08:48:50;;;;;;;9.13;4.55;;;24.90;99.90;;;;;;5081506;28;20067;-72
2023/06/04 08:51:17;;;;;;;12.15;4.78;;;25.60;99.90;;;;;;5094312;28;20023;-73
2023/06/04 08:53:43;;;;;;;5.47;4.40;;;25.40;99.90;;;;;;5096442;28;20043;-74
2023/06/04 08:56:09;;;;;;;10.27;4.50;;;25.60;99.90;;;;;;5096153;28;20031;-74
2023/06/04 08:58:36;;;;;;;6.93;5.60;;;26.10;99.90;;;;;;5099990;28;20084;-74
2023/06/04 09:01:03;;;;;;;7.43;4.75;;;26.60;99.90;;;;;;5106748;28;20101;-70
2023/06/04 09:03:32;;;;;;;5.88;4.60;;;26.50;99.90;;;;;;5101360;27;20536;-72
2023/06/04 09:05:59;;;;;;;7.30;4.80;;;26.40;99.90;;;;;;5088634;28;20063;-71
2023/06/04 09:08:26;;;;;;;7.80;4.70;;;25.40;99.90;;;;;;5093258;28;20039;-72
2023/06/04 09:10:54;;;;;;;6.93;5.13;;;25.00;99.90;;;;;;5101986;28;20024;-71
2023/06/04 09:13:22;;;;;;;6.18;4.45;;;25.00;99.90;;;;;;5092262;28;20024;-74
2023/06/04 09:16:07;;;;;;;8.60;5.28;;;25.50;99.90;;;;;;5097449;28;20032;-73
2023/06/04 09:18:33;;;;;;;7.18;5.40;;;26.80;99.90;;;;;;5100562;28;20484;-75
2023/06/04 09:21:06;;;;;;;11.00;4.93;;;27.70;99.90;;;;;;5077795;27;20056;-76
2023/06/04 09:23:43;;;;;;;11.77;5.47;;;30.00;99.90;;;;;;5084657;28;20059;-76
2023/06/04 09:26:09;;;;;;;6.30;4.95;;;31.20;98.50;;;;;;5095113;28;20027;-75
2023/06/04 09:28:39;;;;;;;5.95;4.47;;;32.10;95.90;;;;;;5102179;28;20036;-75
2023/06/04 09:31:16;;;;;;;10.60;4.53;;;32.90;94.40;;;;;;5105270;28;20032;-75
2023/06/04 09:33:45;;;;;;;11.95;4.72;;;33.30;92.60;;;;;;5079527;28;20077;-74
2023/06/04 09:36:11;;;;;;;8.23;4.90;;;33.30;94.00;;;;;;5103665;28;20031;-74
2023/06/04 09:38:38;;;;;;;7.70;5.60;;;31.80;98.10;;;;;;5105524;28;20046;-74
2023/06/04 09:41:06;;;;;;;6.63;5.28;;;31.80;98.60;;;;;;5085993;28;20033;-74
2023/06/04 09:43:32;;;;;;;8.57;5.38;;;32.20;94.10;;;;;;5089583;28;20024;-75
2023/06/04 09:46:11;;;;;;;7.82;5.60;;;31.80;95.40;;;;;;5091211;28;20539;-74
2023/06/04 09:48:37;;;;;;;5.72;4.95;;;31.90;96.90;;;;;;5069032;28;20964;-74
2023/06/04 09:51:11;;;;;;;11.73;6.10;;;31.20;93.60;;;;;;5087352;28;20035;-75
2023/06/04 09:53:37;;;;;;;8.57;5.20;;;30.70;97.30;;;;;;5092576;28;20052;-75
2023/06/04 09:56:06;;;;;;;7.53;5.72;;;30.80;97.60;;;;;;5093268;28;20099;-72
2023/06/04 09:58:32;;;;;;;7.50;6.05;;;31.10;95.30;;;;;;5068239;28;20586;-74
2023/06/04 10:01:03;;;;;;;8.18;5.57;;;32.00;94.20;;;;;;5088150;28;20056;-75
2023/06/04 10:03:34;;;;;;;8.20;5.28;;;31.90;93.30;;;;;;5093631;28;20121;-75
2023/06/04 10:06:02;;;;;;;8.27;5.75;;;33.10;93.50;;;;;;5071414;28;20059;-74
2023/06/04 10:08:30;;;;;;;6.30;5.38;;;33.00;89.50;;;;;;5088042;28;20063;-73
2023/06/04 10:11:01;;;;;;;7.95;5.55;;;32.90;83.50;;;;;;5085261;28;20034;-75
2023/06/04 10:13:30;;;;;;;5.18;4.68;;;33.10;92.00;;;;;;5083199;28;20031;-73
2023/06/04 10:15:59;;;;;;;6.53;5.03;;;32.30;95.00;;;;;;5087642;28;20062;-72
2023/06/04 10:18:27;;;;;;;6.72;4.70;;;31.40;96.50;;;;;;5092234;28;20049;-72
2023/06/04 10:20:56;;;;;;;5.80;4.50;;;30.20;97.80;;;;;;5091862;28;20036;-72
2023/06/04 10:23:23;;;;;;;6.53;4.55;;;29.40;99.90;;;;;;5092037;28;20053;-72
2023/06/04 10:25:53;;;;;;;9.45;4.75;;;29.00;99.90;;;;;;5082329;28;20493;-72
2023/06/04 10:28:20;;;;;;;8.80;4.75;;;28.10;99.90;;;;;;5089748;28;20054;-71
2023/06/04 10:30:47;;;;;;;5.65;4.25;;;27.80;99.90;;;;;;5087813;28;20032;-75
2023/06/04 10:33:14;;;;;;;5.65;4.90;;;27.80;99.90;;;;;;5098575;28;20020;-74
2023/06/04 10:35:40;;;;;;;5.88;4.70;;;28.10;99.90;;;;;;5090257;28;20026;-75
2023/06/04 10:38:07;;;;;;;;;;;27.90;99.90;;;;;;5082958;28;20040;-73
2023/06/04 10:40:33;;;;;;;5.43;4.75;;;27.80;99.90;;;;;;5092097;28;20380;-73
2023/06/04 10:43:05;;;;;;;6.38;4.68;;;27.80;99.90;;;;;;5096732;28;20085;-74
2023/06/04 10:45:30;;;;;;;4.18;3.78;;;27.60;99.90;;;;;;5083291;28;20431;-75
2023/06/04 10:48:00;;;;;;;4.38;3.97;;;27.70;99.90;;;;;;5091741;28;20036;-72
2023/06/04 10:50:26;;;;;;;6.63;4.80;;;27.70;99.90;;;;;;5084531;28;20024;-73
2023/06/04 10:52:53;;;;;;;8.43;5.03;;;27.60;99.90;;;;;;5087032;28;20054;-74
2023/06/04 10:55:19;;;;;;;6.28;4.55;;;27.50;99.90;;;;;;5089306;28;20441;-75
2023/06/04 10:57:59;;;;;;;6.20;5.40;;;27.80;99.90;;;;;;5089337;28;20074;-75
2023/06/04 11:00:49;;;;;;;6.88;5.00;;;27.90;99.90;;;;;;5087886;28;20038;-74
2023/06/04 11:03:15;;;;;;;7.50;4.57;;;27.90;99.90;;;;;;5076918;28;20602;-74
2023/06/04 11:05:43;;;;;;;8.27;5.18;;;27.70;99.90;;;;;;5081658;28;20805;-75
2023/06/04 11:08:10;;;;;;;5.88;4.50;;;27.40;99.90;;;;;;5091363;28;20043;-75
2023/06/04 11:10:45;;;;;;;6.30;4.60;;;27.40;99.90;;;;;;5088410;28;20031;-76
2023/06/04 11:13:11;;;;;;;5.63;4.63;;;27.50;99.90;;;;;;5089647;28;20047;-72
2023/06/04 11:15:44;;;;;;;;;;;27.40;99.90;;;;;;5089820;28;20024;-71
2023/06/04 11:18:20;;;;;;;7.63;5.07;;;27.30;99.90;;;;;;5091765;28;19916;-73
2023/06/04 11:20:48;;;;;;;7.65;5.63;;;27.20;99.90;;;;;;5091595;28;20024;-72
2023/06/04 11:23:14;;;;;;;6.50;4.88;;;27.00;99.90;;;;;;5082690;28;20122;-74
2023/06/04 11:25:42;;;;;;;9.43;5.10;;;27.00;99.90;;;;;;5087773;28;20060;-75
2023/06/04 11:28:07;;;;;;;9.68;5.60;;;27.30;99.90;;;;;;5095904;28;20094;-75
2023/06/04 11:30:33;;;;;;;5.82;5.20;;;27.20;99.90;;;;;;5092396;28;20032;-73
2023/06/04 11:33:03;;;;;;;5.63;5.07;;;27.10;99.90;;;;;;5089943;28;20048;-75
2023/06/04 11:35:29;;;;;;;14.70;4.30;;;27.50;99.90;;;;;;5085964;28;20036;-75
2023/06/04 11:37:57;;;;;;;5.40;4.85;;;27.60;99.90;;;;;;5075061;28;20035;-75
2023/06/04 11:40:23;;;;;;;6.28;4.90;;;27.50;99.90;;;;;;5091908;28;20041;-75
2023/06/04 11:42:49;;;;;;;;;;;27.30;99.90;;;;;;5089682;28;20139;-72
2023/06/04 11:45:17;;;;;;;8.80;4.93;;;27.40;99.90;;;;;;5096130;28;19904;-73
2023/06/04 11:47:53;;;;;;;5.35;4.20;;;27.10;99.90;;;;;;5090477;28;20455;-76
2023/06/04 11:50:20;;;;;;;6.90;4.57;;;27.20;99.90;;;;;;5085897;28;20117;-75
2023/06/04 11:52:48;;;;;;;5.40;4.15;;;27.40;99.90;;;;;;5093604;28;20146;-72
2023/06/04 11:55:14;;;;;;;4.20;3.80;;;27.60;99.90;;;;;;5086644;28;20035;-74
2023/06/04 11:57:40;;;;;;;6.88;4.03;;;27.60;99.90;;;;;;5086110;28;20130;-76
2023/06/04 12:00:11;;;;;;;4.45;4.03;;;27.70;99.90;;;;;;5083883;28;20158;-73
2023/06/04 12:02:37;;;;;;;6.03;4.63;;;27.50;99.90;;;;;;5082122;28;20028;-75
2023/06/04 12:05:18;;;;;;;5.80;4.30;;;27.50;99.90;;;;;;5087486;28;20090;-75
2023/06/04 12:07:44;;;;;;;7.57;5.00;;;27.50;99.90;;;;;;5086765;28;20086;-76
2023/06/04 12:10:14;;;;;;;5.82;4.45;;;27.30;99.90;;;;;;5088809;28;20023;-75
2023/06/04 12:12:40;;;;;;;4.82;3.80;;;27.00;99.90;;;;;;5078762;28;20039;-76
2023/06/04 12:15:07;;;;;;;4.47;3.55;;;27.00;99.90;;;;;;5085929;28;20449;-73
2023/06/04 12:17:33;;;;;;;7.25;4.28;;;27.20;99.90;;;;;;5093174;28;20041;-76
2023/06/04 12:19:59;;;;;;;9.10;4.28;;;27.20;99.90;;;;;;5085439;28;20118;-73
2023/06/04 12:22:26;;;;;;;8.27;4.68;;;27.20;99.90;;;;;;5087339;28;20028;-72
2023/06/04 12:24:57;;;;;;;5.38;3.65;;;27.30;99.90;;;;;;5079026;28;20032;-74
2023/06/04 12:27:25;;;;;;;8.93;3.75;;;27.30;99.90;;;;;;5089135;28;20488;-75
2023/06/04 12:30:02;;;;;;;4.40;3.65;;;27.40;99.90;;;;;;5090590;28;20118;-75
2023/06/04 12:32:28;;;;;;;4.95;3.78;;;27.40;99.90;;;;;;5088279;28;20374;-76
2023/06/04 12:34:54;;;;;;;;;;;27.40;99.90;;;;;;5085994;28;20028;-75
2023/06/04 12:37:21;;;;;;;5.28;4.22;;;27.40;99.90;;;;;;5094598;28;20375;-76
2023/06/04 12:39:46;;;;;;;6.45;4.22;;;27.30;99.90;;;;;;5094381;28;20021;-76
2023/06/04 12:42:12;;;;;;;6.80;3.55;;;27.50;99.90;;;;;;5081711;28;20034;-75
2023/06/04 12:44:39;;;;;;;5.97;3.85;;;27.30;99.90;;;;;;5091805;28;20033;-76